createdAt,value
2022-08-18T00:02:15.447Z,19.79
2022-08-18T00:04:49.094Z,19.78
2022-08-18T00:07:20.842Z,19.71
2022-08-18T00:09:48.990Z,19.80
2022-08-18T00:12:18.405Z,19.80
2022-08-18T00:14:47.265Z,19.80
2022-08-18T00:17:15.281Z,19.55
2022-08-18T00:19:47.842Z,19.66
2022-08-18T00:22:19.631Z,19.56
2022-08-18T00:24:50.121Z,19.55
2022-08-18T00:27:22.958Z,19.59
2022-08-18T00:29:51.853Z,19.67
2022-08-18T00:32:22.571Z,19.71
2022-08-18T00:34:50.466Z,19.66
2022-08-18T00:37:18.435Z,19.72
2022-08-18T00:39:48.087Z,19.64
2022-08-18T00:42:27.308Z,19.69
2022-08-18T00:44:59.272Z,19.68
2022-08-18T00:47:42.030Z,19.68
2022-08-18T00:50:21.344Z,19.74
2022-08-18T00:52:52.982Z,19.70
2022-08-18T00:55:21.283Z,19.62
2022-08-18T00:57:52.123Z,19.58
2022-08-18T01:00:20.540Z,19.62
2022-08-18T01:02:50.757Z,19.55
2022-08-18T01:05:21.394Z,19.51
2022-08-18T01:07:51.145Z,19.58
2022-08-18T01:10:22.690Z,19.64
2022-08-18T01:12:54.196Z,19.41
2022-08-18T01:15:27.932Z,19.43
2022-08-18T01:18:15.679Z,19.39
2022-08-18T01:21:02.898Z,19.55
2022-08-18T01:23:32.140Z,19.43
2022-08-18T01:26:03.834Z,19.51
2022-08-18T01:28:32.997Z,19.55
2022-08-18T01:31:01.511Z,19.48
2022-08-18T01:33:32.559Z,19.50
2022-08-18T01:36:03.708Z,19.42
2022-08-18T01:38:33.379Z,19.51
2022-08-18T01:41:26.322Z,19.43
2022-08-18T01:43:49.664Z,19.34
2022-08-18T01:46:20.144Z,19.19
2022-08-18T01:48:48.746Z,19.19
2022-08-18T01:51:16.780Z,19.25
2022-08-18T01:53:46.253Z,18.97
2022-08-18T01:56:14.537Z,19.05
2022-08-18T01:58:42.973Z,18.92
2022-08-18T02:01:12.612Z,18.91
2022-08-18T02:03:45.074Z,18.75
2022-08-18T02:06:14.867Z,18.81
2022-08-18T02:08:45.284Z,18.92
2022-08-18T02:11:19.401Z,18.74
2022-08-18T02:13:47.332Z,18.81
2022-08-18T02:16:15.303Z,18.90
2022-08-18T02:18:48.634Z,18.85
2022-08-18T02:21:19.422Z,18.87
2022-08-18T02:23:53.417Z,18.74
2022-08-18T02:26:23.357Z,18.80
2022-08-18T02:28:51.855Z,18.79
2022-08-18T02:31:21.429Z,18.91
2022-08-18T02:33:52.574Z,18.91
2022-08-18T02:36:42.265Z,18.87
2022-08-18T02:39:10.178Z,18.83
2022-08-18T02:41:39.568Z,18.81
2022-08-18T02:44:07.764Z,18.76
2022-08-18T02:46:35.936Z,18.76
2022-08-18T02:49:03.927Z,18.83
2022-08-18T02:51:31.904Z,18.69
2022-08-18T02:54:00.309Z,18.67
2022-08-18T02:56:40.676Z,18.60
2022-08-18T02:59:12.765Z,18.61
2022-08-18T03:01:41.971Z,18.67
2022-08-18T03:04:11.149Z,18.73
2022-08-18T03:06:39.300Z,18.66
2022-08-18T03:09:08.750Z,18.67
2022-08-18T03:11:36.849Z,18.61
2022-08-18T03:14:05.444Z,18.59
2022-08-18T03:16:35.258Z,18.66
2022-08-18T03:19:03.674Z,18.71
2022-08-18T03:21:35.011Z,18.71
2022-08-18T03:24:03.325Z,18.51
2022-08-18T03:26:37.231Z,18.61
2022-08-18T03:29:05.188Z,18.64
2022-08-18T03:31:38.597Z,18.73
2022-08-18T03:34:08.514Z,18.84
2022-08-18T03:36:37.002Z,18.76
2022-08-18T03:39:05.689Z,18.72
2022-08-18T03:41:43.782Z,18.73
2022-08-18T03:44:21.805Z,18.67
2022-08-18T03:46:51.462Z,18.77
2022-08-18T03:49:20.450Z,18.85
2022-08-18T03:51:48.786Z,18.80
2022-08-18T03:54:17.979Z,19.05
2022-08-18T03:56:46.541Z,19.04
2022-08-18T03:59:17.053Z,19.07
2022-08-18T04:01:46.162Z,18.93
2022-08-18T04:04:16.942Z,18.86
2022-08-18T04:06:50.539Z,18.84
2022-08-18T04:09:26.483Z,18.92
2022-08-18T04:11:54.412Z,18.95
2022-08-18T04:14:24.941Z,18.88
2022-08-18T04:16:53.002Z,19.01
2022-08-18T04:19:27.448Z,19.05
2022-08-18T04:21:55.896Z,18.87
2022-08-18T04:24:24.090Z,19.05
2022-08-18T04:26:53.188Z,18.98
2022-08-18T04:29:21.799Z,19.00
2022-08-18T04:31:50.092Z,19.04
2022-08-18T04:34:20.648Z,18.93
2022-08-18T04:36:54.145Z,18.74
2022-08-18T04:39:22.341Z,18.77
2022-08-18T04:41:50.741Z,18.84
2022-08-18T04:44:19.613Z,18.97
2022-08-18T04:46:49.629Z,19.03
2022-08-18T04:49:18.022Z,19.01
2022-08-18T04:52:34.400Z,18.92
2022-08-18T04:54:57.649Z,18.85
2022-08-18T04:57:26.306Z,18.91
2022-08-18T04:59:54.545Z,19.00
2022-08-18T05:02:22.713Z,18.96
2022-08-18T05:04:52.249Z,18.98
2022-08-18T05:07:21.162Z,18.98
2022-08-18T05:09:49.744Z,18.99
2022-08-18T05:12:19.085Z,19.01
2022-08-18T05:14:52.088Z,19.03
2022-08-18T05:17:20.110Z,19.13
2022-08-18T05:19:48.549Z,19.13
2022-08-18T05:22:24.278Z,19.21
2022-08-18T05:25:00.700Z,19.26
2022-08-18T05:27:35.307Z,19.51
2022-08-18T05:30:03.510Z,19.13
2022-08-18T05:32:47.928Z,19.05
2022-08-18T05:35:23.700Z,19.30
2022-08-18T05:38:01.647Z,19.21
2022-08-18T05:40:31.906Z,19.09
2022-08-18T05:43:01.434Z,19.19
2022-08-18T05:45:30.332Z,19.30
2022-08-18T05:47:59.954Z,19.16
2022-08-18T05:50:29.290Z,19.18
2022-08-18T05:52:58.354Z,19.42
2022-08-18T05:55:48.097Z,19.23
2022-08-18T05:58:19.081Z,19.33
2022-08-18T06:00:56.288Z,19.18
2022-08-18T06:03:28.534Z,19.25
2022-08-18T06:05:59.002Z,19.32
2022-08-18T06:08:29.424Z,19.39
2022-08-18T06:10:57.363Z,19.34
2022-08-18T06:13:27.126Z,19.34
2022-08-18T06:15:58.609Z,19.18
2022-08-18T06:18:34.131Z,19.33
2022-08-18T06:21:12.745Z,19.23
2022-08-18T06:23:43.713Z,19.47
2022-08-18T06:26:15.103Z,19.30
2022-08-18T06:28:52.899Z,19.28
2022-08-18T06:31:26.040Z,19.15
2022-08-18T06:34:02.813Z,19.34
2022-08-18T06:36:37.501Z,19.43
2022-08-18T06:39:08.761Z,19.25
2022-08-18T06:41:43.208Z,19.38
2022-08-18T06:44:19.851Z,19.38
2022-08-18T06:46:53.686Z,19.35
2022-08-18T06:49:27.793Z,19.34
2022-08-18T06:51:55.721Z,19.25
2022-08-18T06:54:28.414Z,19.52
2022-08-18T06:56:56.796Z,19.32
2022-08-18T06:59:28.007Z,19.38
2022-08-18T07:01:57.918Z,19.44
2022-08-18T07:04:34.188Z,19.39
2022-08-18T07:07:17.366Z,19.59
2022-08-18T07:09:45.313Z,19.51
2022-08-18T07:12:13.851Z,19.67
2022-08-18T07:14:47.467Z,19.75
2022-08-18T07:17:22.223Z,19.63
2022-08-18T07:20:12.029Z,19.77
2022-08-18T07:22:53.658Z,19.75
2022-08-18T07:25:24.469Z,19.83
2022-08-18T07:27:56.064Z,19.73
2022-08-18T07:30:31.188Z,19.92
2022-08-18T07:33:03.559Z,20.05
2022-08-18T07:35:33.998Z,19.86
2022-08-18T07:38:18.686Z,19.96
2022-08-18T07:40:54.379Z,19.71
2022-08-18T07:43:27.532Z,19.55
2022-08-18T07:46:07.535Z,19.76
2022-08-18T07:48:38.574Z,19.60
2022-08-18T07:51:10.333Z,19.75
2022-08-18T07:53:55.750Z,19.60
2022-08-18T07:56:30.740Z,19.83
2022-08-18T07:58:59.913Z,19.81
2022-08-18T08:01:34.108Z,19.72
2022-08-18T08:04:06.404Z,19.82
2022-08-18T08:06:37.960Z,19.65
2022-08-18T08:09:09.504Z,19.73
2022-08-18T08:11:46.327Z,19.77
2022-08-18T08:14:26.160Z,19.74
2022-08-18T08:17:00.204Z,19.56
2022-08-18T08:20:01.878Z,19.78
2022-08-18T08:22:32.546Z,19.96
2022-08-18T08:25:17.482Z,19.97
2022-08-18T08:28:02.999Z,20.17
2022-08-18T08:30:32.664Z,20.32
2022-08-18T08:33:08.168Z,20.26
2022-08-18T08:35:50.128Z,20.28
2022-08-18T08:38:40.153Z,20.15
2022-08-18T08:41:11.051Z,20.20
2022-08-18T08:43:41.054Z,20.34
2022-08-18T08:46:11.789Z,20.48
2022-08-18T08:48:45.653Z,20.70
2022-08-18T08:51:25.558Z,20.74
2022-08-18T08:54:00.518Z,20.81
2022-08-18T08:56:31.149Z,20.87
2022-08-18T08:59:00.230Z,20.92
2022-08-18T09:01:32.020Z,21.20
2022-08-18T09:04:04.777Z,21.04
2022-08-18T09:06:37.448Z,21.24
2022-08-18T09:09:17.509Z,21.04
2022-08-18T09:12:03.076Z,21.24
2022-08-18T09:14:42.240Z,21.24
2022-08-18T09:17:36.080Z,21.35
2022-08-18T09:20:16.613Z,21.53
2022-08-18T09:22:48.567Z,21.36
2022-08-18T09:25:32.221Z,21.47
2022-08-18T09:28:11.472Z,21.62
2022-08-18T09:30:49.085Z,21.45
2022-08-18T09:33:35.252Z,21.86
2022-08-18T09:36:21.279Z,21.85
2022-08-18T09:39:14.188Z,21.83
2022-08-18T09:41:49.329Z,21.87
2022-08-18T09:44:50.274Z,22.01
2022-08-18T09:47:47.839Z,22.03
2022-08-18T09:50:39.990Z,22.17
2022-08-18T09:53:38.049Z,22.30
2022-08-18T09:56:08.168Z,22.36
2022-08-18T09:58:54.381Z,22.61
2022-08-18T10:01:42.291Z,22.44
2022-08-18T10:04:49.198Z,22.89
2022-08-18T10:07:20.277Z,23.06
2022-08-18T10:09:58.943Z,23.09
2022-08-18T10:12:37.578Z,23.34
2022-08-18T10:15:39.171Z,23.54
2022-08-18T10:18:17.231Z,23.40
2022-08-18T10:20:53.651Z,23.42
2022-08-18T10:23:58.126Z,23.22
2022-08-18T10:27:13.372Z,23.37
2022-08-18T10:29:55.555Z,23.66
2022-08-18T10:32:44.245Z,23.71
2022-08-18T10:36:06.294Z,23.90
2022-08-18T10:38:46.158Z,23.85
2022-08-18T10:44:28.766Z,23.62
2022-08-18T10:46:57.456Z,23.72
2022-08-18T10:49:27.929Z,23.74
2022-08-18T10:52:06.947Z,23.87
2022-08-18T10:54:51.845Z,23.85
2022-08-18T10:57:27.647Z,23.86
2022-08-18T11:00:03.938Z,23.90
2022-08-18T11:02:41.296Z,24.01
2022-08-18T11:05:11.038Z,23.78
2022-08-18T11:07:44.886Z,23.65
2022-08-18T11:10:50.737Z,23.55
2022-08-18T11:13:10.792Z,23.72
2022-08-18T11:15:47.486Z,23.64
2022-08-18T11:18:29.047Z,23.98
2022-08-18T11:24:28.822Z,24.08
2022-08-18T11:26:57.462Z,23.86
2022-08-18T11:32:23.520Z,23.62
2022-08-18T11:34:53.945Z,24.19
2022-08-18T11:37:27.079Z,24.01
2022-08-18T11:39:56.404Z,24.05
2022-08-18T11:42:29.358Z,24.29
2022-08-18T11:45:03.971Z,24.07
2022-08-18T11:47:36.101Z,24.44
2022-08-18T11:50:09.449Z,24.59
2022-08-18T11:52:49.028Z,24.68
2022-08-18T11:55:29.996Z,24.77
2022-08-18T11:57:59.971Z,24.76
2022-08-18T12:01:01.697Z,24.93
2022-08-18T12:03:49.150Z,24.79
2022-08-18T12:06:26.680Z,25.02
2022-08-18T12:09:00.496Z,24.87
2022-08-18T12:11:29.900Z,24.84
2022-08-18T12:14:31.271Z,24.61
2022-08-18T12:16:55.602Z,25.17
2022-08-18T12:19:28.071Z,25.27
2022-08-18T12:22:01.629Z,25.22
2022-08-18T12:24:36.511Z,25.01
2022-08-18T12:27:20.699Z,25.21
2022-08-18T12:29:51.755Z,25.51
2022-08-18T12:32:48.938Z,25.45
2022-08-18T12:35:12.255Z,25.41
2022-08-18T12:37:58.862Z,24.97
2022-08-18T12:40:30.118Z,25.07
2022-08-18T12:42:58.602Z,25.24
2022-08-18T12:45:27.260Z,25.19
2022-08-18T12:47:55.561Z,25.25
2022-08-18T12:50:31.492Z,25.32
2022-08-18T12:53:02.046Z,25.18
2022-08-18T12:55:30.780Z,25.10
2022-08-18T12:58:00.340Z,25.08
2022-08-18T13:00:29.252Z,25.22
2022-08-18T13:02:57.967Z,25.51
2022-08-18T13:05:30.083Z,25.70
2022-08-18T13:07:59.240Z,25.70
2022-08-18T13:10:44.740Z,25.86
2022-08-18T13:13:15.460Z,26.09
2022-08-18T13:15:55.649Z,26.32
2022-08-18T13:18:30.441Z,26.47
2022-08-18T13:21:04.284Z,26.37
2022-08-18T13:23:35.241Z,26.58
2022-08-18T13:26:03.406Z,26.38
2022-08-18T13:28:36.097Z,26.22
2022-08-18T13:31:20.717Z,25.77
2022-08-18T13:33:57.965Z,25.66
2022-08-18T13:36:46.050Z,25.83
2022-08-18T13:39:14.601Z,25.83
2022-08-18T13:41:43.582Z,25.99
2022-08-18T13:44:18.619Z,25.63
2022-08-18T13:46:48.590Z,25.46
2022-08-18T13:49:18.657Z,25.50
2022-08-18T13:52:00.352Z,25.14
2022-08-18T13:54:35.103Z,25.43
2022-08-18T13:57:04.272Z,25.43
2022-08-18T13:59:34.091Z,25.36
2022-08-18T14:02:02.575Z,25.22
2022-08-18T14:04:31.036Z,24.89
2022-08-18T14:07:05.855Z,24.89
2022-08-18T14:09:38.260Z,24.93
2022-08-18T14:12:07.308Z,24.79
2022-08-18T14:14:45.020Z,25.07
2022-08-18T14:17:16.288Z,24.82
2022-08-18T14:20:05.384Z,25.15
2022-08-18T14:22:58.187Z,24.93
2022-08-18T14:25:45.631Z,25.18
2022-08-18T14:28:18.825Z,25.10
2022-08-18T14:30:54.564Z,25.01
2022-08-18T14:33:34.534Z,25.03
2022-08-18T14:36:12.301Z,24.77
2022-08-18T14:38:42.041Z,24.74
2022-08-18T14:41:27.352Z,25.14
2022-08-18T14:44:11.524Z,25.12
2022-08-18T14:46:42.216Z,25.16
2022-08-18T14:49:28.563Z,25.03
2022-08-18T14:51:57.950Z,25.45
2022-08-18T14:54:30.613Z,25.36
2022-08-18T14:56:58.776Z,25.59
2022-08-18T14:59:28.485Z,25.56
2022-08-18T15:01:56.909Z,25.70
2022-08-18T15:04:25.588Z,25.63
2022-08-18T15:06:56.823Z,25.45
2022-08-18T15:09:27.745Z,25.34
2022-08-18T15:11:58.623Z,25.21
2022-08-18T15:14:33.113Z,25.25
2022-08-18T15:17:02.460Z,25.25
2022-08-18T15:19:58.538Z,25.27
2022-08-18T15:22:35.950Z,25.51
2022-08-18T15:25:24.165Z,25.50
2022-08-18T15:27:52.549Z,25.53
2022-08-18T15:30:20.827Z,25.53
2022-08-18T15:32:50.000Z,25.51
2022-08-18T15:35:19.379Z,25.33
2022-08-18T15:37:48.268Z,25.44
2022-08-18T15:40:30.965Z,25.28
2022-08-18T15:43:10.143Z,25.14
2022-08-18T15:45:43.337Z,24.94
2022-08-18T15:48:28.017Z,24.95
2022-08-18T15:50:57.024Z,25.14
2022-08-18T15:53:45.017Z,25.32
2022-08-18T15:56:16.323Z,25.13
2022-08-18T15:58:49.273Z,25.24
2022-08-18T16:01:29.833Z,25.16
2022-08-18T16:04:04.668Z,25.44
2022-08-18T16:06:33.744Z,25.21
2022-08-18T16:09:04.389Z,25.26
2022-08-18T16:11:34.259Z,25.45
2022-08-18T16:14:03.181Z,25.20
2022-08-18T16:16:36.463Z,25.19
2022-08-18T16:19:07.082Z,25.48
2022-08-18T16:21:40.528Z,25.50
2022-08-18T16:24:10.043Z,25.39
2022-08-18T16:26:39.776Z,25.33
2022-08-18T16:29:07.861Z,24.96
2022-08-18T16:31:36.020Z,25.06
2022-08-18T16:34:04.167Z,25.07
2022-08-18T16:36:32.246Z,24.86
2022-08-18T16:39:00.546Z,25.14
2022-08-18T16:41:29.436Z,25.02
2022-08-18T16:43:58.804Z,24.90
2022-08-18T16:46:27.727Z,24.97
2022-08-18T16:48:56.134Z,25.09
2022-08-18T16:51:25.451Z,24.75
2022-08-18T16:53:54.629Z,24.58
2022-08-18T16:56:23.982Z,24.53
2022-08-18T16:59:09.307Z,24.42
2022-08-18T17:01:56.200Z,24.58
2022-08-18T17:04:26.200Z,24.60
2022-08-18T17:06:54.393Z,24.59
2022-08-18T17:09:24.036Z,24.71
2022-08-18T17:11:52.534Z,24.78
2022-08-18T17:14:23.509Z,24.30
2022-08-18T17:16:55.087Z,24.23
2022-08-18T17:19:23.391Z,24.48
2022-08-18T17:21:51.602Z,24.45
2022-08-18T17:24:31.218Z,24.33
2022-08-18T17:27:20.387Z,24.40
2022-08-18T17:30:00.612Z,24.33
2022-08-18T17:32:31.745Z,24.35
2022-08-18T17:35:04.038Z,24.07
2022-08-18T17:37:32.584Z,24.26
2022-08-18T17:40:04.189Z,24.02
2022-08-18T17:42:36.575Z,24.12
2022-08-18T17:45:10.400Z,23.98
2022-08-18T17:47:45.172Z,23.90
2022-08-18T17:50:35.464Z,23.72
2022-08-18T17:53:06.402Z,23.79
2022-08-18T17:55:39.676Z,23.72
2022-08-18T17:58:10.864Z,23.80
2022-08-18T18:00:38.813Z,23.74
2022-08-18T18:03:09.789Z,23.71
2022-08-18T18:05:42.963Z,23.76
2022-08-18T18:08:10.979Z,23.61
2022-08-18T18:10:51.171Z,23.69
2022-08-18T18:13:25.724Z,23.61
2022-08-18T18:15:55.288Z,23.64
2022-08-18T18:18:33.325Z,23.49
2022-08-18T18:21:05.870Z,23.40
2022-08-18T18:23:36.621Z,23.48
2022-08-18T18:26:29.527Z,23.27
2022-08-18T18:29:19.918Z,23.26
2022-08-18T18:31:58.317Z,23.23
2022-08-18T18:34:32.200Z,23.13
2022-08-18T18:37:00.928Z,23.02
2022-08-18T18:39:33.766Z,23.04
2022-08-18T18:42:17.622Z,23.03
2022-08-18T18:44:52.506Z,22.99
2022-08-18T18:47:31.718Z,22.95
2022-08-18T18:50:04.903Z,22.90
2022-08-18T18:52:39.052Z,22.72
2022-08-18T18:55:08.990Z,22.80
2022-08-18T18:57:40.776Z,22.67
2022-08-18T19:00:18.231Z,22.57
2022-08-18T19:02:55.633Z,22.57
2022-08-18T19:05:28.731Z,22.47
2022-08-18T19:08:03.587Z,22.11
2022-08-18T19:10:38.526Z,22.17
2022-08-18T19:13:11.340Z,22.25
2022-08-18T19:15:54.753Z,21.79
2022-08-18T19:18:27.684Z,21.86
2022-08-18T19:21:49.263Z,21.92
2022-08-18T19:23:49.732Z,21.90
2022-08-18T19:26:22.786Z,21.92
2022-08-18T19:29:12.003Z,21.92
2022-08-18T19:31:42.988Z,21.80
2022-08-18T19:34:14.245Z,21.76
2022-08-18T19:36:48.507Z,21.61
2022-08-18T19:39:18.319Z,21.67
2022-08-18T19:41:49.704Z,21.60
2022-08-18T19:44:29.381Z,21.44
2022-08-18T19:47:00.111Z,21.30
2022-08-18T19:49:32.061Z,21.33
2022-08-18T19:52:45.756Z,21.19
2022-08-18T19:55:13.995Z,20.79
2022-08-18T19:57:55.290Z,20.96
2022-08-18T20:00:26.661Z,20.86
2022-08-18T20:03:31.531Z,20.95
2022-08-18T20:06:33.483Z,20.87
2022-08-18T20:09:13.075Z,21.01
2022-08-18T20:11:56.223Z,20.95
2022-08-18T20:14:24.187Z,20.77
2022-08-18T20:17:16.753Z,20.80
2022-08-18T20:20:13.086Z,20.76
2022-08-18T20:22:43.323Z,20.76
2022-08-18T20:25:38.721Z,20.90
2022-08-18T20:28:36.652Z,21.05
2022-08-18T20:31:12.544Z,20.97
2022-08-18T20:33:43.512Z,20.94
2022-08-18T20:36:20.301Z,20.85
2022-08-18T20:38:49.044Z,20.96
2022-08-18T20:41:44.290Z,20.95
2022-08-18T20:44:43.710Z,20.82
2022-08-18T20:47:23.503Z,20.63
2022-08-18T20:49:58.110Z,20.58
2022-08-18T20:52:37.398Z,20.58
2022-08-18T20:55:11.708Z,20.35
2022-08-18T20:57:41.810Z,20.17
2022-08-18T21:00:15.745Z,20.29
2022-08-18T21:02:50.125Z,20.36
2022-08-18T21:05:27.824Z,20.16
2022-08-18T21:08:02.358Z,20.29
2022-08-18T21:10:30.797Z,20.25
2022-08-18T21:13:01.140Z,20.30
2022-08-18T21:15:30.723Z,20.06
2022-08-18T21:18:00.495Z,20.02
2022-08-18T21:20:28.580Z,19.98
2022-08-18T21:23:07.621Z,19.96
2022-08-18T21:25:35.880Z,20.13
2022-08-18T21:28:06.112Z,20.16
2022-08-18T21:30:34.441Z,20.21
2022-08-18T21:33:02.583Z,20.20
2022-08-18T21:35:33.467Z,20.12
2022-08-18T21:38:02.602Z,20.10
2022-08-18T21:40:39.634Z,19.90
2022-08-18T21:43:09.191Z,19.83
2022-08-18T21:45:47.487Z,19.91
2022-08-18T21:48:16.203Z,19.65
2022-08-18T21:50:51.234Z,19.69
2022-08-18T21:53:21.429Z,19.33
2022-08-18T21:55:51.981Z,19.53
2022-08-18T21:58:33.767Z,19.69
2022-08-18T22:01:18.460Z,19.71
2022-08-18T22:03:54.009Z,19.67
2022-08-18T22:06:29.752Z,19.68
2022-08-18T22:08:59.082Z,19.64
2022-08-18T22:12:00.432Z,19.71
2022-08-18T22:14:36.139Z,19.66
2022-08-18T22:17:26.004Z,19.70
2022-08-18T22:19:54.124Z,19.69
2022-08-18T22:22:40.505Z,19.63
2022-08-18T22:25:09.176Z,19.65
2022-08-18T22:27:37.172Z,19.75
2022-08-18T22:30:07.205Z,19.74
2022-08-18T22:32:36.848Z,19.72
2022-08-18T22:35:05.382Z,19.68
2022-08-18T22:37:37.129Z,19.66
2022-08-18T22:40:07.608Z,19.49
2022-08-18T22:42:36.087Z,19.59
2022-08-18T22:45:07.234Z,19.71
2022-08-18T22:47:42.907Z,19.74
2022-08-18T22:50:12.829Z,19.68
2022-08-18T22:52:42.434Z,19.56
2022-08-18T22:55:11.794Z,19.71
2022-08-18T22:57:40.650Z,19.69
2022-08-18T23:00:14.496Z,19.70
2022-08-18T23:02:43.053Z,19.55
2022-08-18T23:05:11.786Z,19.63
2022-08-18T23:07:39.659Z,19.66
2022-08-18T23:10:14.004Z,19.63
2022-08-18T23:12:42.678Z,19.59
2022-08-18T23:15:12.448Z,19.66
2022-08-18T23:17:43.139Z,19.67
2022-08-18T23:20:17.791Z,19.55
2022-08-18T23:22:47.769Z,19.41
2022-08-18T23:25:15.859Z,19.32
2022-08-18T23:27:43.888Z,19.44
2022-08-18T23:30:13.850Z,19.43
2022-08-18T23:32:42.955Z,19.39
2022-08-18T23:35:11.569Z,19.44
2022-08-18T23:37:39.592Z,19.46
2022-08-18T23:40:11.315Z,19.48
2022-08-18T23:42:39.346Z,19.41
2022-08-18T23:45:07.982Z,19.45
2022-08-18T23:47:37.447Z,19.43
2022-08-18T23:50:06.762Z,19.46
2022-08-18T23:52:34.638Z,19.46
2022-08-18T23:55:05.008Z,19.26
2022-08-18T23:57:35.936Z,19.20
